createdAt,value
2022-12-23T00:00:59.575Z,99983.06
2022-12-23T00:03:30.872Z,99992.53
2022-12-23T00:06:01.882Z,99988.22
2022-12-23T00:08:32.066Z,99990.81
2022-12-23T00:11:04.012Z,99995.09
2022-12-23T00:13:57.808Z,99994.25
2022-12-23T00:16:28.154Z,99987.34
2022-12-23T00:18:58.356Z,99988.16
2022-12-23T00:21:28.465Z,99985.56
2022-12-23T00:23:58.586Z,100002.78
2022-12-23T00:26:29.065Z,100001.03
2022-12-23T00:28:59.274Z,100002.78
2022-12-23T00:31:29.428Z,100000.19
2022-12-23T00:33:59.648Z,100003.66
2022-12-23T00:36:31.188Z,100006.19
2022-12-23T00:39:19.895Z,99997.59
2022-12-23T00:42:08.401Z,99997.56
2022-12-23T00:44:38.613Z,100001.91
2022-12-23T00:47:28.799Z,99998.44
2022-12-23T00:49:59.143Z,100001.88
2022-12-23T00:52:29.208Z,100000.09
2022-12-23T00:55:00.307Z,99995.78
2022-12-23T00:57:30.363Z,100002.66
2022-12-23T01:00:00.506Z,100009.53
2022-12-23T01:02:49.213Z,99998.34
2022-12-23T01:05:37.693Z,100004.38
2022-12-23T01:08:12.084Z,100017.31
2022-12-23T01:10:42.224Z,100014.72
2022-12-23T01:13:12.327Z,100014.72
2022-12-23T01:15:42.464Z,100008.72
2022-12-23T01:18:12.662Z,100019.91
2022-12-23T01:20:42.843Z,100022.47
2022-12-23T01:23:13.075Z,100025.06
2022-12-23T01:25:43.212Z,100026.78
2022-12-23T01:28:13.348Z,100031.13
2022-12-23T01:30:43.439Z,100026.81
2022-12-23T01:33:13.636Z,100016.50
2022-12-23T01:35:43.681Z,100016.50
2022-12-23T01:38:14.264Z,100031.97
2022-12-23T01:40:46.013Z,100031.13
2022-12-23T01:43:20.311Z,100029.41
2022-12-23T01:45:50.560Z,100041.47
2022-12-23T01:48:26.884Z,100031.09
2022-12-23T01:51:03.159Z,100029.41
2022-12-23T01:53:40.966Z,100030.28
2022-12-23T01:56:24.085Z,100026.84
2022-12-23T01:59:03.353Z,100032.84
2022-12-23T02:01:51.987Z,100029.41
2022-12-23T02:04:25.037Z,100034.56
2022-12-23T02:07:14.019Z,100035.44
2022-12-23T02:09:44.130Z,100032.91
2022-12-23T02:12:50.714Z,100032.91
2022-12-23T02:15:57.252Z,100038.06
2022-12-23T02:18:45.683Z,100037.19
2022-12-23T02:21:39.366Z,100038.06
2022-12-23T02:24:45.040Z,100035.47
2022-12-23T02:27:30.312Z,100034.59
2022-12-23T02:30:22.234Z,100032.00
2022-12-23T02:33:30.228Z,100037.19
2022-12-23T02:36:24.226Z,100037.16
2022-12-23T02:38:58.238Z,100029.44
2022-12-23T02:41:34.039Z,100033.72
2022-12-23T02:44:55.091Z,100029.41
2022-12-23T02:47:31.268Z,100039.72
2022-12-23T02:50:09.463Z,100029.44
2022-12-23T02:52:42.073Z,100036.28
2022-12-23T02:55:16.914Z,100028.53
2022-12-23T02:57:50.061Z,100021.66
2022-12-23T03:00:21.549Z,100024.25
2022-12-23T03:02:52.020Z,100030.31
2022-12-23T03:05:41.685Z,100022.56
2022-12-23T03:08:20.811Z,100020.81
2022-12-23T03:11:10.822Z,100021.69
2022-12-23T03:14:04.573Z,100028.56
2022-12-23T03:16:45.857Z,100029.41
2022-12-23T03:19:20.907Z,100036.25
2022-12-23T03:22:07.452Z,100033.66
2022-12-23T03:24:54.591Z,100029.34
2022-12-23T03:27:41.424Z,100034.53
2022-12-23T03:30:14.215Z,100033.66
2022-12-23T03:32:49.888Z,100042.22
2022-12-23T03:35:24.601Z,100031.94
2022-12-23T03:37:56.391Z,100033.59
2022-12-23T03:40:58.748Z,100043.94
2022-12-23T03:43:48.329Z,100044.78
2022-12-23T03:46:31.002Z,100048.25
2022-12-23T03:49:09.317Z,100039.66
2022-12-23T03:51:54.105Z,100039.66
2022-12-23T03:54:30.961Z,100037.09
2022-12-23T03:57:05.132Z,100034.50
2022-12-23T03:59:38.821Z,100036.25
2022-12-23T04:02:34.411Z,100042.28
2022-12-23T04:05:27.209Z,100041.41
2022-12-23T04:08:07.168Z,100044.88
2022-12-23T04:10:37.806Z,100042.25
2022-12-23T04:13:08.638Z,100035.38
2022-12-23T04:15:43.919Z,100035.38
2022-12-23T04:18:14.176Z,100030.22
2022-12-23T04:20:44.562Z,100023.34
2022-12-23T04:23:14.725Z,100016.47
2022-12-23T04:25:44.874Z,100026.78
2022-12-23T04:28:15.034Z,99997.50
2022-12-23T04:30:45.123Z,100025.03
2022-12-23T04:33:15.311Z,100019.91
2022-12-23T04:35:45.516Z,100019.88
2022-12-23T04:38:15.766Z,100031.94
2022-12-23T04:40:49.069Z,100032.81
2022-12-23T04:43:19.260Z,100031.97
2022-12-23T04:45:52.977Z,100044.00
2022-12-23T04:48:23.133Z,100028.50
2022-12-23T04:50:53.686Z,100035.38
2022-12-23T04:53:23.906Z,100032.78
2022-12-23T04:55:54.110Z,100036.25
2022-12-23T04:58:25.277Z,100028.50
2022-12-23T05:01:07.738Z,100037.94
2022-12-23T05:03:39.164Z,100031.06
2022-12-23T05:06:09.393Z,100038.81
2022-12-23T05:08:39.597Z,100044.84
2022-12-23T05:11:09.756Z,100041.38
2022-12-23T05:13:39.903Z,100036.22
2022-12-23T05:16:10.101Z,100031.94
2022-12-23T05:18:40.262Z,100032.78
2022-12-23T05:21:10.425Z,100030.22
2022-12-23T05:23:40.653Z,100022.44
2022-12-23T05:26:11.494Z,100042.28
2022-12-23T05:28:43.121Z,100030.22
2022-12-23T05:31:14.087Z,100029.38
2022-12-23T05:33:44.469Z,100034.53
2022-12-23T05:36:14.699Z,100036.25
2022-12-23T05:38:44.893Z,100040.53
2022-12-23T05:41:16.817Z,100037.97
2022-12-23T05:43:46.936Z,100038.84
2022-12-23T05:46:22.663Z,100049.16
2022-12-23T05:48:56.274Z,100050.00
2022-12-23T05:51:26.424Z,100060.31
2022-12-23T05:53:56.559Z,100036.19
2022-12-23T05:56:26.730Z,100055.16
2022-12-23T05:58:56.880Z,100050.03
2022-12-23T06:01:27.060Z,100046.56
2022-12-23T06:03:57.488Z,100049.16
2022-12-23T06:06:27.776Z,100062.03
2022-12-23T06:09:00.102Z,100057.78
2022-12-23T06:11:30.653Z,100037.97
2022-12-23T06:14:00.880Z,100032.78
2022-12-23T06:16:31.011Z,100052.59
2022-12-23T06:19:01.293Z,100050.00
2022-12-23T06:21:32.088Z,100054.28
2022-12-23T06:24:02.225Z,100054.31
2022-12-23T06:26:33.752Z,100063.75
2022-12-23T06:29:04.681Z,100074.94
2022-12-23T06:31:34.917Z,100070.66
2022-12-23T06:34:05.396Z,100084.44
2022-12-23T06:36:35.574Z,100083.56
2022-12-23T06:39:05.710Z,100080.09
2022-12-23T06:41:35.837Z,100080.13
2022-12-23T06:44:07.037Z,100089.56
2022-12-23T06:46:37.234Z,100087.00
2022-12-23T06:49:13.133Z,100086.09
2022-12-23T06:51:43.806Z,100095.59
2022-12-23T06:54:14.093Z,100097.31
2022-12-23T06:56:44.251Z,100088.69
2022-12-23T06:59:14.513Z,100079.22
2022-12-23T07:01:44.783Z,100086.09
2022-12-23T07:04:15.036Z,100077.50
2022-12-23T07:06:45.247Z,100080.94
2022-12-23T07:09:15.803Z,100074.06
2022-12-23T07:11:46.186Z,100074.94
2022-12-23T07:14:16.364Z,100079.25
2022-12-23T07:16:46.580Z,100093.88
2022-12-23T07:19:16.783Z,100087.81
2022-12-23T07:21:47.051Z,100096.41
2022-12-23T07:24:17.638Z,100091.25
2022-12-23T07:26:48.423Z,100099.84
2022-12-23T07:29:18.613Z,100093.81
2022-12-23T07:31:51.302Z,100098.16
2022-12-23T07:34:21.546Z,100107.66
2022-12-23T07:36:51.608Z,100104.16
2022-12-23T07:39:22.094Z,100111.06
2022-12-23T07:42:09.097Z,100105.91
2022-12-23T07:44:42.611Z,100118.81
2022-12-23T07:47:13.148Z,100123.16
2022-12-23T07:49:43.361Z,100118.81
2022-12-23T07:52:13.407Z,100111.94
2022-12-23T07:54:43.818Z,100100.72
2022-12-23T07:57:13.971Z,100111.06
2022-12-23T07:59:44.041Z,100107.66
2022-12-23T08:02:14.205Z,100112.81
2022-12-23T08:04:46.551Z,100105.91
2022-12-23T08:07:16.873Z,100109.38
2022-12-23T08:09:47.067Z,100105.03
2022-12-23T08:12:17.189Z,100092.09
2022-12-23T08:14:48.610Z,100107.59
2022-12-23T08:17:21.627Z,100102.47
2022-12-23T08:19:51.825Z,100104.16
2022-12-23T08:22:22.026Z,100109.31
2022-12-23T08:24:52.841Z,100105.03
2022-12-23T08:27:23.038Z,100097.28
2022-12-23T08:29:53.150Z,100106.78
2022-12-23T08:32:27.245Z,100111.06
2022-12-23T08:34:57.807Z,100105.94
2022-12-23T08:37:27.984Z,100087.00
2022-12-23T08:39:58.193Z,100088.72
2022-12-23T08:42:28.407Z,100105.09
2022-12-23T08:44:58.943Z,100090.47
2022-12-23T08:47:29.156Z,100101.66
2022-12-23T08:49:59.371Z,100101.63
2022-12-23T08:52:29.542Z,100105.97
2022-12-23T08:54:59.677Z,100110.28
2022-12-23T08:57:29.728Z,100111.13
2022-12-23T08:59:59.914Z,100109.44
2022-12-23T09:02:30.087Z,100104.25
2022-12-23T09:05:00.512Z,100109.44
2022-12-23T09:07:32.014Z,100098.28
2022-12-23T09:10:02.562Z,100103.41
2022-12-23T09:12:32.731Z,100110.31
2022-12-23T09:15:03.032Z,100102.56
2022-12-23T09:17:33.484Z,100112.91
2022-12-23T09:20:04.141Z,100098.22
2022-12-23T09:22:34.968Z,100103.41
2022-12-23T09:25:05.725Z,100101.69
2022-12-23T09:27:35.905Z,100099.97
2022-12-23T09:30:06.751Z,100095.66
2022-12-23T09:32:37.619Z,100092.22
2022-12-23T09:35:09.116Z,100095.66
2022-12-23T09:37:39.270Z,100091.38
2022-12-23T09:40:14.650Z,100087.09
2022-12-23T09:43:03.903Z,100091.38
2022-12-23T09:46:00.348Z,100084.50
2022-12-23T09:48:34.561Z,100082.78
2022-12-23T09:51:06.137Z,100081.91
2022-12-23T09:54:06.254Z,100085.34
2022-12-23T09:56:58.180Z,100086.19
2022-12-23T09:59:57.307Z,100093.97
2022-12-23T10:02:30.896Z,100093.06
2022-12-23T10:05:11.544Z,100089.63
2022-12-23T10:07:57.643Z,100075.84
2022-12-23T10:10:43.577Z,100091.34
2022-12-23T10:13:38.526Z,100087.06
2022-12-23T10:16:16.010Z,100088.75
2022-12-23T10:19:09.096Z,100072.44
2022-12-23T10:21:49.230Z,100065.56
2022-12-23T10:24:29.383Z,100066.44
2022-12-23T10:27:30.109Z,100061.28
2022-12-23T10:30:34.357Z,100059.59
2022-12-23T10:33:03.300Z,100065.66
2022-12-23T10:35:46.885Z,100050.16
2022-12-23T10:38:38.568Z,100051.84
2022-12-23T10:41:39.406Z,100056.19
2022-12-23T10:44:24.662Z,100048.44
2022-12-23T10:47:03.251Z,100054.47
2022-12-23T10:49:59.933Z,100058.78
2022-12-23T10:52:32.902Z,100066.53
2022-12-23T10:55:03.002Z,100060.50
2022-12-23T10:57:33.274Z,100063.06
2022-12-23T11:00:18.719Z,100051.88
2022-12-23T11:03:29.309Z,100062.22
2022-12-23T11:06:00.582Z,100063.97
2022-12-23T11:08:32.139Z,100062.22
2022-12-23T11:11:02.518Z,100070.84
2022-12-23T11:13:32.602Z,100069.09
2022-12-23T11:16:25.561Z,100063.97
2022-12-23T11:19:01.612Z,100068.25
2022-12-23T11:21:33.507Z,100069.97
2022-12-23T11:24:17.931Z,100069.97
2022-12-23T11:27:09.800Z,100069.09
2022-12-23T11:29:50.908Z,100064.84
2022-12-23T11:32:25.363Z,100060.53
2022-12-23T11:34:56.663Z,100064.81
2022-12-23T11:37:41.221Z,100065.69
2022-12-23T11:40:24.535Z,100061.38
2022-12-23T11:43:01.246Z,100067.44
2022-12-23T11:45:35.857Z,100062.25
2022-12-23T11:48:26.361Z,100070.00
2022-12-23T11:51:02.060Z,100068.31
2022-12-23T11:53:32.547Z,100057.09
2022-12-23T11:56:15.004Z,100067.44
2022-12-23T11:58:54.100Z,100064.00
2022-12-23T12:01:25.524Z,100064.00
2022-12-23T12:04:09.327Z,100062.28
2022-12-23T12:06:48.404Z,100064.00
2022-12-23T12:09:24.201Z,100057.97
2022-12-23T12:11:58.409Z,100057.97
2022-12-23T12:14:32.417Z,100066.59
2022-12-23T12:17:19.637Z,100060.53
2022-12-23T12:20:01.806Z,100067.44
2022-12-23T12:22:56.645Z,100060.53
2022-12-23T12:25:42.591Z,100051.09
2022-12-23T12:28:19.680Z,100062.28
2022-12-23T12:30:58.824Z,100057.97
2022-12-23T12:33:39.885Z,100055.41
2022-12-23T12:36:26.113Z,100051.06
2022-12-23T12:39:00.096Z,100062.31
2022-12-23T12:41:38.402Z,100064.88
2022-12-23T12:44:29.218Z,100054.53
2022-12-23T12:47:36.093Z,100064.03
2022-12-23T12:50:06.813Z,100060.56
2022-12-23T12:52:40.789Z,100064.03
2022-12-23T12:55:25.541Z,100061.44
2022-12-23T12:57:55.816Z,100058.88
2022-12-23T13:00:26.119Z,100046.81
2022-12-23T13:03:26.589Z,100064.03
2022-12-23T13:06:29.050Z,100058.88
2022-12-23T13:09:06.479Z,100050.25
2022-12-23T13:12:17.645Z,100053.69
2022-12-23T13:15:21.510Z,100053.69
2022-12-23T13:18:20.847Z,100048.53
2022-12-23T13:21:04.600Z,100053.69
2022-12-23T13:23:43.989Z,100051.13
2022-12-23T13:26:25.718Z,100045.09
2022-12-23T13:29:01.585Z,100048.53
2022-12-23T13:32:06.723Z,100057.19
2022-12-23T13:34:52.081Z,100068.38
2022-12-23T13:37:56.463Z,100066.66
2022-12-23T13:40:49.947Z,100058.88
2022-12-23T13:43:24.016Z,100041.63
2022-12-23T13:45:56.093Z,100060.63
2022-12-23T13:48:48.563Z,100058.88
2022-12-23T13:51:36.368Z,100057.16
2022-12-23T13:54:44.889Z,100058.88
2022-12-23T13:57:23.887Z,100070.94
2022-12-23T14:00:33.349Z,100065.75
2022-12-23T14:03:06.082Z,100076.94
2022-12-23T14:05:57.596Z,100073.50
2022-12-23T14:08:39.554Z,100067.50
2022-12-23T14:11:22.115Z,100074.34
2022-12-23T14:13:52.307Z,100074.38
2022-12-23T14:16:48.030Z,100077.78
2022-12-23T14:19:36.245Z,100085.56
2022-12-23T14:22:12.060Z,100081.25
2022-12-23T14:25:32.807Z,100082.09
2022-12-23T14:28:29.219Z,100080.34
2022-12-23T14:31:00.149Z,100072.63
2022-12-23T14:33:35.045Z,100068.28
2022-12-23T14:36:25.724Z,100071.75
2022-12-23T14:39:14.204Z,100067.47
2022-12-23T14:41:57.530Z,100070.88
2022-12-23T14:44:36.115Z,100066.56
2022-12-23T14:47:31.278Z,100075.19
2022-12-23T14:50:36.980Z,100080.34
2022-12-23T14:53:31.228Z,100079.44
2022-12-23T14:56:14.957Z,100086.31
2022-12-23T14:59:00.034Z,100088.88
2022-12-23T15:01:50.378Z,100092.34
2022-12-23T15:04:40.787Z,100096.63
2022-12-23T15:07:26.817Z,100100.06
2022-12-23T15:10:01.138Z,100094.91
2022-12-23T15:12:34.971Z,100104.38
2022-12-23T15:15:16.626Z,100106.09
2022-12-23T15:17:47.364Z,100104.38
2022-12-23T15:20:24.287Z,100099.19
2022-12-23T15:23:00.844Z,100101.78
2022-12-23T15:25:34.064Z,100094.91
2022-12-23T15:28:04.772Z,100098.34
2022-12-23T15:30:45.076Z,100102.69
2022-12-23T15:34:00.576Z,100101.81
2022-12-23T15:36:11.677Z,100104.44
2022-12-23T15:38:42.313Z,100093.19
2022-12-23T15:41:17.415Z,100102.69
2022-12-23T15:43:47.645Z,100092.34
2022-12-23T15:46:28.639Z,100101.78
2022-12-23T15:49:00.283Z,100093.19
2022-12-23T15:54:35.434Z,100094.03
2022-12-23T15:57:06.093Z,100091.47
2022-12-23T15:59:39.625Z,100086.28
2022-12-23T16:02:59.556Z,100103.53
2022-12-23T16:05:08.199Z,100100.91
2022-12-23T16:07:41.336Z,100094.03
2022-12-23T16:10:20.504Z,100075.03
2022-12-23T16:12:51.977Z,100100.88
2022-12-23T16:15:29.329Z,100112.91
2022-12-23T16:18:25.562Z,100108.56
2022-12-23T16:21:00.686Z,100106.88
2022-12-23T16:23:36.738Z,100124.03
2022-12-23T16:26:11.313Z,100117.16
2022-12-23T16:28:45.309Z,100122.31
2022-12-23T16:31:18.328Z,100117.16
2022-12-23T16:33:56.191Z,100116.28
2022-12-23T16:36:26.363Z,100117.16
2022-12-23T16:39:00.447Z,100112.00
2022-12-23T16:41:33.753Z,100112.88
2022-12-23T16:44:04.605Z,100118.03
2022-12-23T16:46:39.507Z,100117.19
2022-12-23T16:49:15.994Z,100106.81
2022-12-23T16:51:46.767Z,100087.81
2022-12-23T16:54:18.779Z,100126.63
2022-12-23T16:56:50.162Z,100133.50
2022-12-23T16:59:21.274Z,100134.34
2022-12-23T17:01:51.646Z,100129.16
2022-12-23T17:04:21.847Z,100137.81
2022-12-23T17:06:53.163Z,100138.66
2022-12-23T17:09:23.373Z,100140.38
2022-12-23T17:11:53.960Z,100150.72
2022-12-23T17:14:26.126Z,100149.84
2022-12-23T17:16:56.392Z,100141.25
2022-12-23T17:19:29.236Z,100142.06
2022-12-23T17:22:02.853Z,100146.41
2022-12-23T17:24:32.971Z,100143.78
2022-12-23T17:27:13.701Z,100143.78
2022-12-23T17:29:44.327Z,100148.06
2022-12-23T17:32:16.910Z,100139.44
2022-12-23T17:34:47.187Z,100143.72
2022-12-23T17:37:19.822Z,100148.06
2022-12-23T17:39:49.966Z,100148.91
2022-12-23T17:42:25.867Z,100146.31
2022-12-23T17:44:56.339Z,100150.63
2022-12-23T17:47:27.763Z,100136.91
2022-12-23T17:49:57.864Z,100117.91
2022-12-23T17:52:28.092Z,100132.59
2022-12-23T17:54:58.243Z,100133.41
2022-12-23T17:57:28.395Z,100133.38
2022-12-23T17:59:58.472Z,100130.75
2022-12-23T18:02:33.292Z,100148.81
2022-12-23T18:05:20.004Z,100136.78
2022-12-23T18:07:51.868Z,100144.53
2022-12-23T18:10:26.239Z,100151.38
2022-12-23T18:12:59.939Z,100153.09
2022-12-23T18:15:36.815Z,100155.66
2022-12-23T18:18:26.433Z,100155.66
2022-12-23T18:21:01.258Z,100154.78
2022-12-23T18:23:33.882Z,100160.84
2022-12-23T18:26:04.653Z,100162.56
2022-12-23T18:28:34.870Z,100159.13
2022-12-23T18:31:05.086Z,100166.88
2022-12-23T18:33:35.257Z,100175.47
2022-12-23T18:36:05.654Z,100173.75
2022-12-23T18:38:35.823Z,100166.84
2022-12-23T18:41:06.076Z,100180.63
2022-12-23T18:43:36.149Z,100190.94
2022-12-23T18:46:06.555Z,100190.03
2022-12-23T18:48:36.738Z,100196.06
2022-12-23T18:51:06.939Z,100201.25
2022-12-23T18:53:37.117Z,100199.50
2022-12-23T18:56:10.081Z,100194.28
2022-12-23T18:58:40.318Z,100214.00
2022-12-23T19:01:15.897Z,100222.59
2022-12-23T19:03:46.442Z,100216.53
2022-12-23T19:06:17.070Z,100216.56
2022-12-23T19:08:47.335Z,100226.03
2022-12-23T19:11:21.241Z,100228.63
2022-12-23T19:13:51.829Z,100228.63
2022-12-23T19:16:22.242Z,100220.03
2022-12-23T19:18:52.500Z,100233.81
2022-12-23T19:21:22.993Z,100238.97
2022-12-23T19:23:53.200Z,100240.72
2022-12-23T19:26:23.408Z,100237.25
2022-12-23T19:28:53.577Z,100234.69
2022-12-23T19:31:23.846Z,100236.41
2022-12-23T19:33:54.047Z,100237.25
2022-12-23T19:36:24.699Z,100232.06
2022-12-23T19:38:57.156Z,100238.91
2022-12-23T19:41:27.288Z,100240.63
2022-12-23T19:44:00.600Z,100244.84
2022-12-23T19:46:31.227Z,100240.47
2022-12-23T19:49:01.393Z,100238.72
2022-12-23T19:51:32.105Z,100243.00
2022-12-23T19:54:03.297Z,100242.13
2022-12-23T19:56:35.357Z,100251.53
2022-12-23T19:59:05.492Z,100250.63
2022-12-23T20:01:35.801Z,100243.72
2022-12-23T20:04:07.017Z,100246.25
2022-12-23T20:06:38.534Z,100235.78
2022-12-23T20:09:11.451Z,100253.06
2022-12-23T20:11:47.533Z,100258.19
2022-12-23T20:14:18.957Z,100258.16
2022-12-23T20:16:49.551Z,100262.44
2022-12-23T20:19:20.075Z,100257.28
2022-12-23T20:21:50.315Z,100267.63
2022-12-23T20:24:20.535Z,100265.91
2022-12-23T20:26:50.791Z,100268.50
2022-12-23T20:29:20.950Z,100259.00
2022-12-23T20:31:51.146Z,100269.44
2022-12-23T20:34:21.382Z,100266.91
2022-12-23T20:36:51.506Z,100272.97
2022-12-23T20:39:21.741Z,100274.66
2022-12-23T20:41:51.892Z,100279.88
2022-12-23T20:44:34.652Z,100281.53
2022-12-23T20:47:06.558Z,100281.53
2022-12-23T20:49:36.809Z,100283.22
2022-12-23T20:52:06.962Z,100283.09
2022-12-23T20:54:37.105Z,100277.84
2022-12-23T20:57:07.322Z,100284.69
2022-12-23T20:59:37.428Z,100287.19
2022-12-23T21:02:07.628Z,100294.88
2022-12-23T21:04:37.865Z,100295.69
2022-12-23T21:07:08.460Z,100295.63
2022-12-23T21:09:38.628Z,100292.97
2022-12-23T21:12:08.727Z,100293.00
2022-12-23T21:14:38.955Z,100306.69
2022-12-23T21:17:09.116Z,100300.56
2022-12-23T21:19:39.328Z,100293.63
2022-12-23T21:22:09.480Z,100297.88
2022-12-23T21:24:39.621Z,100298.66
2022-12-23T21:27:09.807Z,100296.94
2022-12-23T21:29:39.952Z,100288.16
2022-12-23T21:32:10.211Z,100311.47
2022-12-23T21:34:40.301Z,100317.44
2022-12-23T21:37:10.476Z,100308.78
2022-12-23T21:39:40.660Z,100316.53
2022-12-23T21:42:10.789Z,100319.97
2022-12-23T21:44:40.949Z,100326.88
2022-12-23T21:47:11.247Z,100321.72
2022-12-23T21:49:42.540Z,100326.88
2022-12-23T21:52:12.769Z,100327.72
2022-12-23T21:54:42.947Z,100330.22
2022-12-23T21:57:13.284Z,100325.91
2022-12-23T21:59:43.491Z,100328.44
2022-12-23T22:02:16.927Z,100331.81
2022-12-23T22:04:47.241Z,100332.59
2022-12-23T22:07:17.462Z,100334.28
2022-12-23T22:09:47.663Z,100332.44
2022-12-23T22:12:17.808Z,100342.66
2022-12-23T22:14:48.050Z,100328.75
2022-12-23T22:17:18.185Z,100338.97
2022-12-23T22:19:48.418Z,100337.22
2022-12-23T22:22:18.555Z,100345.75
2022-12-23T22:24:48.684Z,100338.72
2022-12-23T22:27:18.874Z,100355.03
2022-12-23T22:29:49.011Z,100366.22
2022-12-23T22:32:19.125Z,100365.28
2022-12-23T22:34:49.248Z,100356.63
2022-12-23T22:37:19.383Z,100362.50
2022-12-23T22:39:49.567Z,100361.44
2022-12-23T22:42:19.666Z,100374.38
2022-12-23T22:44:49.849Z,100382.03
2022-12-23T22:47:20.621Z,100379.38
2022-12-23T22:49:50.938Z,100381.00
2022-12-23T22:52:21.105Z,100384.44
2022-12-23T22:54:51.217Z,100384.34
2022-12-23T22:57:21.395Z,100363.59
2022-12-23T22:59:51.754Z,100382.59
2022-12-23T23:02:22.091Z,100384.22
2022-12-23T23:04:52.617Z,100389.34
2022-12-23T23:07:22.869Z,100379.84
2022-12-23T23:09:53.002Z,100373.75
2022-12-23T23:12:23.168Z,100378.06
2022-12-23T23:14:53.449Z,100376.28
2022-12-23T23:17:25.822Z,100375.44
2022-12-23T23:19:56.256Z,100385.78
2022-12-23T23:22:26.479Z,100386.66
2022-12-23T23:24:59.695Z,100388.34
2022-12-23T23:27:36.022Z,100386.66
2022-12-23T23:30:07.020Z,100391.03
2022-12-23T23:32:37.148Z,100385.06
2022-12-23T23:35:10.844Z,100379.81
2022-12-23T23:37:41.353Z,100387.72
2022-12-23T23:40:11.729Z,100388.69
2022-12-23T23:42:41.930Z,100391.25
2022-12-23T23:45:12.139Z,100398.25
2022-12-23T23:47:42.246Z,100390.53
2022-12-23T23:50:12.385Z,100394.91
2022-12-23T23:52:42.462Z,100386.25
2022-12-23T23:55:13.028Z,100400.09
2022-12-23T23:57:43.137Z,100396.69
